< < Back
Terminal Aerodrome Forecast


Current Version              Previous Versions:   1  2  3  4  5  6  7  8  9  

Terminal Aerodrome Forecast

353
FTUS42 KMLB 200200 AAA
TAFMCO
TAF AMD
KMCO 200250Z 2003/2024 24003KT P6SM FEW250
     FM201500 29005KT P6SM SCT040 SCT250=

Latest METAR

451
SAUS70 KWBC 200800 RRH
MTRMCO
METAR KMCO 200753Z 32003KT 10SM CLR 27/24 A3000 RMK AO2 SLP157
T02670239


USA.gov is the U.S. government's official web portal to all federal, state and local government web resources and services.